ウィニペグ の空港の天気 - METARとTAF

ウィニペグ国際空港 ( CYWG / YWG ) - カナダ マニトバ州ウィニペグ
飛行場実況気象(Metar)
観測時間01/19 05:00 CST (01/19 11:00 UTC)
風向・風速南西 2m/s
視程10km以上
天気現象
なし
気温-29℃
湿度68%
気圧1035.7hPa
METARCYWG 191100Z 22004KT 15SM SKC M29/M33 A3048 RMK SLP357
過去の天気等 Google飛行場航空写真 Wunderground天気予報

過去48時間のMETAR

飛行場予報(TAF)
発表時間: 1/18 23:38 CST (1/19 05:38 UTC)
予報対象時間: 19日0時 CST ~ 20日0時 CST
風向・風速南西 3m/s
視程10km以上
少しの雲 雲底高度 4570m
19日13時 CST ~ 19日15時 CST に徐々に
風向・風速北 4m/s
19日23時 CST から
風向・風速北東 3m/s
視程10km以上
全天の4割程度の雲 雲底高度 5490m
TAF CYWG 190538Z 1906/2006 23005KT P6SM FEW150
BECMG 1919/1921 35008KT
FM200500 05006KT P6SM SCT180 RMK NXT FCST BY 191200Z